sensor_id;sensor_type;location;lat;lon;timestamp;P1;durP1;ratioP1;P2;durP2;ratioP2
62202;SDS011;48199;49.138;7.414;2022-07-05T00:00:57;4.60;;;3.00;;
62202;SDS011;48199;49.138;7.414;2022-07-05T00:03:22;4.55;;;3.20;;
62202;SDS011;48199;49.138;7.414;2022-07-05T00:05:48;7.45;;;3.47;;
62202;SDS011;48199;49.138;7.414;2022-07-05T00:08:14;6.47;;;2.83;;
62202;SDS011;48199;49.138;7.414;2022-07-05T00:10:40;4.93;;;2.70;;
62202;SDS011;48199;49.138;7.414;2022-07-05T00:13:06;4.40;;;2.40;;
62202;SDS011;48199;49.138;7.414;2022-07-05T00:15:32;2.95;;;2.15;;
62202;SDS011;48199;49.138;7.414;2022-07-05T00:17:58;3.85;;;2.30;;
62202;SDS011;48199;49.138;7.414;2022-07-05T00:20:23;7.35;;;2.72;;
62202;SDS011;48199;49.138;7.414;2022-07-05T00:22:49;4.97;;;2.40;;
62202;SDS011;48199;49.138;7.414;2022-07-05T00:25:15;3.67;;;2.25;;
62202;SDS011;48199;49.138;7.414;2022-07-05T00:27:40;6.20;;;2.92;;
62202;SDS011;48199;49.138;7.414;2022-07-05T00:30:06;7.82;;;3.33;;
62202;SDS011;48199;49.138;7.414;2022-07-05T00:32:32;6.22;;;3.08;;
62202;SDS011;48199;49.138;7.414;2022-07-05T00:34:58;12.98;;;3.33;;
62202;SDS011;48199;49.138;7.414;2022-07-05T00:37:23;10.93;;;3.38;;
62202;SDS011;48199;49.138;7.414;2022-07-05T00:39:48;4.72;;;2.78;;
62202;SDS011;48199;49.138;7.414;2022-07-05T00:42:14;4.80;;;2.50;;
62202;SDS011;48199;49.138;7.414;2022-07-05T00:44:39;4.55;;;2.85;;
62202;SDS011;48199;49.138;7.414;2022-07-05T00:47:06;4.63;;;2.80;;
62202;SDS011;48199;49.138;7.414;2022-07-05T00:49:33;7.03;;;2.67;;
62202;SDS011;48199;49.138;7.414;2022-07-05T00:52:01;5.85;;;2.80;;
62202;SDS011;48199;49.138;7.414;2022-07-05T00:54:28;8.57;;;3.10;;
62202;SDS011;48199;49.138;7.414;2022-07-05T00:56:54;3.92;;;2.60;;
62202;SDS011;48199;49.138;7.414;2022-07-05T00:59:20;8.23;;;2.90;;
62202;SDS011;48199;49.138;7.414;2022-07-05T01:01:45;9.07;;;2.85;;
62202;SDS011;48199;49.138;7.414;2022-07-05T01:04:11;9.77;;;3.22;;
62202;SDS011;48199;49.138;7.414;2022-07-05T01:06:38;3.90;;;2.70;;
62202;SDS011;48199;49.138;7.414;2022-07-05T01:09:04;5.43;;;2.85;;
62202;SDS011;48199;49.138;7.414;2022-07-05T01:11:30;4.03;;;3.05;;
62202;SDS011;48199;49.138;7.414;2022-07-05T01:13:56;5.13;;;2.60;;
62202;SDS011;48199;49.138;7.414;2022-07-05T01:16:25;8.23;;;2.35;;
62202;SDS011;48199;49.138;7.414;2022-07-05T01:18:51;7.00;;;2.88;;
62202;SDS011;48199;49.138;7.414;2022-07-05T01:21:16;8.18;;;3.38;;
62202;SDS011;48199;49.138;7.414;2022-07-05T01:23:45;6.80;;;2.92;;
62202;SDS011;48199;49.138;7.414;2022-07-05T01:26:10;7.82;;;3.15;;
62202;SDS011;48199;49.138;7.414;2022-07-05T01:28:36;7.15;;;3.30;;
62202;SDS011;48199;49.138;7.414;2022-07-05T01:31:01;5.18;;;2.90;;
62202;SDS011;48199;49.138;7.414;2022-07-05T01:33:27;5.40;;;2.97;;
62202;SDS011;48199;49.138;7.414;2022-07-05T01:35:54;5.13;;;3.20;;
62202;SDS011;48199;49.138;7.414;2022-07-05T01:38:20;7.63;;;3.22;;
62202;SDS011;48199;49.138;7.414;2022-07-05T01:40:46;6.82;;;3.22;;
62202;SDS011;48199;49.138;7.414;2022-07-05T01:43:15;8.73;;;2.97;;
62202;SDS011;48199;49.138;7.414;2022-07-05T01:45:40;5.65;;;2.65;;
62202;SDS011;48199;49.138;7.414;2022-07-05T01:48:13;7.75;;;2.78;;
62202;SDS011;48199;49.138;7.414;2022-07-05T01:53:39;11.52;;;2.92;;
62202;SDS011;48199;49.138;7.414;2022-07-05T01:56:06;7.00;;;3.67;;
62202;SDS011;48199;49.138;7.414;2022-07-05T01:58:31;7.47;;;3.25;;
62202;SDS011;48199;49.138;7.414;2022-07-05T02:00:57;5.22;;;3.00;;
62202;SDS011;48199;49.138;7.414;2022-07-05T02:03:24;7.25;;;3.67;;
62202;SDS011;48199;49.138;7.414;2022-07-05T02:05:50;5.00;;;2.78;;
62202;SDS011;48199;49.138;7.414;2022-07-05T02:08:16;9.55;;;3.05;;
62202;SDS011;48199;49.138;7.414;2022-07-05T02:10:43;4.80;;;2.95;;
62202;SDS011;48199;49.138;7.414;2022-07-05T02:13:09;5.75;;;3.60;;
62202;SDS011;48199;49.138;7.414;2022-07-05T02:15:35;4.22;;;3.03;;
62202;SDS011;48199;49.138;7.414;2022-07-05T02:18:02;5.47;;;3.05;;
62202;SDS011;48199;49.138;7.414;2022-07-05T02:20:29;5.70;;;2.70;;
62202;SDS011;48199;49.138;7.414;2022-07-05T02:22:56;4.88;;;3.10;;
62202;SDS011;48199;49.138;7.414;2022-07-05T02:25:21;11.48;;;3.05;;
62202;SDS011;48199;49.138;7.414;2022-07-05T02:27:47;3.08;;;2.50;;
62202;SDS011;48199;49.138;7.414;2022-07-05T02:30:13;6.78;;;3.13;;
62202;SDS011;48199;49.138;7.414;2022-07-05T02:32:38;4.80;;;2.63;;
62202;SDS011;48199;49.138;7.414;2022-07-05T02:35:04;5.40;;;2.80;;
62202;SDS011;48199;49.138;7.414;2022-07-05T02:37:30;6.38;;;3.35;;
62202;SDS011;48199;49.138;7.414;2022-07-05T02:39:55;10.32;;;3.53;;
62202;SDS011;48199;49.138;7.414;2022-07-05T02:42:21;3.30;;;2.75;;
62202;SDS011;48199;49.138;7.414;2022-07-05T02:44:46;4.07;;;2.88;;
62202;SDS011;48199;49.138;7.414;2022-07-05T02:47:12;6.40;;;2.80;;
62202;SDS011;48199;49.138;7.414;2022-07-05T02:49:37;4.63;;;2.78;;
62202;SDS011;48199;49.138;7.414;2022-07-05T02:52:03;4.05;;;2.95;;
62202;SDS011;48199;49.138;7.414;2022-07-05T02:54:28;5.47;;;3.40;;
62202;SDS011;48199;49.138;7.414;2022-07-05T02:56:54;4.25;;;2.65;;
62202;SDS011;48199;49.138;7.414;2022-07-05T02:59:19;6.22;;;3.45;;
62202;SDS011;48199;49.138;7.414;2022-07-05T03:01:44;4.35;;;2.80;;
62202;SDS011;48199;49.138;7.414;2022-07-05T03:04:10;7.78;;;3.42;;
62202;SDS011;48199;49.138;7.414;2022-07-05T03:06:35;4.60;;;3.10;;
62202;SDS011;48199;49.138;7.414;2022-07-05T03:09:01;5.22;;;3.15;;
62202;SDS011;48199;49.138;7.414;2022-07-05T03:11:27;5.68;;;2.60;;
62202;SDS011;48199;49.138;7.414;2022-07-05T03:13:52;5.38;;;3.08;;
62202;SDS011;48199;49.138;7.414;2022-07-05T03:16:17;4.22;;;2.88;;
62202;SDS011;48199;49.138;7.414;2022-07-05T03:18:43;3.80;;;3.08;;
62202;SDS011;48199;49.138;7.414;2022-07-05T03:21:08;8.40;;;3.60;;
62202;SDS011;48199;49.138;7.414;2022-07-05T03:23:34;6.80;;;2.97;;
62202;SDS011;48199;49.138;7.414;2022-07-05T03:25:59;4.05;;;2.80;;
62202;SDS011;48199;49.138;7.414;2022-07-05T03:28:25;5.53;;;3.20;;
62202;SDS011;48199;49.138;7.414;2022-07-05T03:30:50;7.50;;;2.97;;
62202;SDS011;48199;49.138;7.414;2022-07-05T03:33:15;4.35;;;2.78;;
62202;SDS011;48199;49.138;7.414;2022-07-05T03:35:41;7.10;;;3.20;;
62202;SDS011;48199;49.138;7.414;2022-07-05T03:38:06;4.97;;;3.38;;
62202;SDS011;48199;49.138;7.414;2022-07-05T03:40:32;4.05;;;3.28;;
62202;SDS011;48199;49.138;7.414;2022-07-05T03:42:57;5.32;;;3.10;;
62202;SDS011;48199;49.138;7.414;2022-07-05T03:45:23;7.65;;;3.25;;
62202;SDS011;48199;49.138;7.414;2022-07-05T03:47:48;3.55;;;2.80;;
62202;SDS011;48199;49.138;7.414;2022-07-05T03:50:13;3.53;;;2.92;;
62202;SDS011;48199;49.138;7.414;2022-07-05T03:52:39;5.20;;;2.92;;
62202;SDS011;48199;49.138;7.414;2022-07-05T03:55:04;5.55;;;3.25;;
62202;SDS011;48199;49.138;7.414;2022-07-05T03:57:29;3.83;;;3.05;;
62202;SDS011;48199;49.138;7.414;2022-07-05T03:59:55;6.78;;;3.50;;
62202;SDS011;48199;49.138;7.414;2022-07-05T04:02:21;4.40;;;2.55;;
62202;SDS011;48199;49.138;7.414;2022-07-05T04:04:46;3.28;;;2.70;;
62202;SDS011;48199;49.138;7.414;2022-07-05T04:07:12;5.15;;;2.78;;
62202;SDS011;48199;49.138;7.414;2022-07-05T04:09:37;6.57;;;3.10;;
62202;SDS011;48199;49.138;7.414;2022-07-05T04:12:03;4.85;;;2.55;;
62202;SDS011;48199;49.138;7.414;2022-07-05T04:14:30;4.38;;;3.25;;
62202;SDS011;48199;49.138;7.414;2022-07-05T04:16:55;5.85;;;3.20;;
62202;SDS011;48199;49.138;7.414;2022-07-05T04:19:20;3.38;;;2.70;;
62202;SDS011;48199;49.138;7.414;2022-07-05T04:21:46;4.15;;;2.95;;
62202;SDS011;48199;49.138;7.414;2022-07-05T04:24:11;4.70;;;3.33;;
62202;SDS011;48199;49.138;7.414;2022-07-05T04:26:37;7.47;;;3.40;;
62202;SDS011;48199;49.138;7.414;2022-07-05T04:29:02;4.75;;;2.95;;
62202;SDS011;48199;49.138;7.414;2022-07-05T04:31:28;5.53;;;3.30;;
62202;SDS011;48199;49.138;7.414;2022-07-05T04:33:53;8.77;;;3.53;;
62202;SDS011;48199;49.138;7.414;2022-07-05T04:36:18;5.90;;;3.42;;
62202;SDS011;48199;49.138;7.414;2022-07-05T04:38:44;7.38;;;3.03;;
62202;SDS011;48199;49.138;7.414;2022-07-05T04:41:09;4.50;;;2.55;;
62202;SDS011;48199;49.138;7.414;2022-07-05T04:43:34;4.10;;;2.72;;
62202;SDS011;48199;49.138;7.414;2022-07-05T04:46:00;2.45;;;2.20;;
62202;SDS011;48199;49.138;7.414;2022-07-05T04:48:25;4.32;;;2.00;;
62202;SDS011;48199;49.138;7.414;2022-07-05T04:50:51;3.05;;;1.85;;
62202;SDS011;48199;49.138;7.414;2022-07-05T04:53:16;3.15;;;1.90;;
62202;SDS011;48199;49.138;7.414;2022-07-05T04:55:41;1.80;;;1.40;;
62202;SDS011;48199;49.138;7.414;2022-07-05T04:58:07;8.38;;;1.75;;
62202;SDS011;48199;49.138;7.414;2022-07-05T05:00:32;3.83;;;1.48;;
62202;SDS011;48199;49.138;7.414;2022-07-05T05:02:57;2.17;;;1.48;;
62202;SDS011;48199;49.138;7.414;2022-07-05T05:05:23;4.22;;;1.48;;
62202;SDS011;48199;49.138;7.414;2022-07-05T05:07:48;4.53;;;1.45;;
62202;SDS011;48199;49.138;7.414;2022-07-05T05:10:14;3.20;;;1.40;;
62202;SDS011;48199;49.138;7.414;2022-07-05T05:12:39;7.25;;;1.65;;
62202;SDS011;48199;49.138;7.414;2022-07-05T05:15:05;3.33;;;1.40;;
62202;SDS011;48199;49.138;7.414;2022-07-05T05:17:37;2.60;;;1.50;;
62202;SDS011;48199;49.138;7.414;2022-07-05T05:20:04;4.60;;;1.42;;
62202;SDS011;48199;49.138;7.414;2022-07-05T05:22:40;3.60;;;1.60;;
62202;SDS011;48199;49.138;7.414;2022-07-05T05:25:06;2.83;;;1.38;;
62202;SDS011;48199;49.138;7.414;2022-07-05T05:27:33;4.50;;;1.50;;
62202;SDS011;48199;49.138;7.414;2022-07-05T05:29:58;4.35;;;1.20;;
62202;SDS011;48199;49.138;7.414;2022-07-05T05:32:23;4.53;;;1.33;;
62202;SDS011;48199;49.138;7.414;2022-07-05T05:34:49;4.05;;;1.50;;
62202;SDS011;48199;49.138;7.414;2022-07-05T05:37:14;3.53;;;1.23;;
62202;SDS011;48199;49.138;7.414;2022-07-05T05:39:39;4.68;;;1.35;;
62202;SDS011;48199;49.138;7.414;2022-07-05T05:42:05;4.88;;;1.42;;
62202;SDS011;48199;49.138;7.414;2022-07-05T05:44:30;3.35;;;1.50;;
62202;SDS011;48199;49.138;7.414;2022-07-05T05:46:56;6.93;;;1.83;;
62202;SDS011;48199;49.138;7.414;2022-07-05T05:49:21;1.52;;;1.38;;
62202;SDS011;48199;49.138;7.414;2022-07-05T05:51:47;4.75;;;1.55;;
62202;SDS011;48199;49.138;7.414;2022-07-05T05:54:12;6.68;;;1.40;;
62202;SDS011;48199;49.138;7.414;2022-07-05T05:56:37;2.92;;;1.20;;
62202;SDS011;48199;49.138;7.414;2022-07-05T05:59:05;3.47;;;1.60;;
62202;SDS011;48199;49.138;7.414;2022-07-05T06:01:31;3.53;;;1.73;;
62202;SDS011;48199;49.138;7.414;2022-07-05T06:03:56;5.45;;;1.67;;
62202;SDS011;48199;49.138;7.414;2022-07-05T06:06:21;6.38;;;1.75;;
62202;SDS011;48199;49.138;7.414;2022-07-05T06:08:47;4.43;;;1.60;;
62202;SDS011;48199;49.138;7.414;2022-07-05T06:11:12;3.40;;;1.60;;
62202;SDS011;48199;49.138;7.414;2022-07-05T06:13:38;11.98;;;2.20;;
62202;SDS011;48199;49.138;7.414;2022-07-05T06:16:05;8.05;;;1.70;;
62202;SDS011;48199;49.138;7.414;2022-07-05T06:18:31;5.32;;;1.85;;
62202;SDS011;48199;49.138;7.414;2022-07-05T06:20:56;4.65;;;1.48;;
62202;SDS011;48199;49.138;7.414;2022-07-05T06:23:22;3.03;;;1.55;;
62202;SDS011;48199;49.138;7.414;2022-07-05T06:25:47;5.60;;;1.83;;
62202;SDS011;48199;49.138;7.414;2022-07-05T06:28:12;3.58;;;1.40;;
62202;SDS011;48199;49.138;7.414;2022-07-05T06:30:38;4.65;;;1.50;;
62202;SDS011;48199;49.138;7.414;2022-07-05T06:33:04;6.75;;;1.70;;
62202;SDS011;48199;49.138;7.414;2022-07-05T06:35:30;8.43;;;1.48;;
62202;SDS011;48199;49.138;7.414;2022-07-05T06:38:00;3.33;;;1.60;;
62202;SDS011;48199;49.138;7.414;2022-07-05T06:42:58;2.08;;;1.48;;
62202;SDS011;48199;49.138;7.414;2022-07-05T06:45:25;4.78;;;1.73;;
62202;SDS011;48199;49.138;7.414;2022-07-05T06:48:01;6.00;;;1.80;;
62202;SDS011;48199;49.138;7.414;2022-07-05T06:50:32;4.95;;;1.65;;
62202;SDS011;48199;49.138;7.414;2022-07-05T06:53:00;3.35;;;1.52;;
62202;SDS011;48199;49.138;7.414;2022-07-05T06:55:26;4.22;;;1.30;;
62202;SDS011;48199;49.138;7.414;2022-07-05T06:58:03;6.63;;;1.50;;
62202;SDS011;48199;49.138;7.414;2022-07-05T07:00:30;3.53;;;1.70;;
62202;SDS011;48199;49.138;7.414;2022-07-05T07:02:56;7.90;;;1.83;;
62202;SDS011;48199;49.138;7.414;2022-07-05T07:05:22;3.78;;;1.50;;
62202;SDS011;48199;49.138;7.414;2022-07-05T07:07:48;3.60;;;1.42;;
62202;SDS011;48199;49.138;7.414;2022-07-05T07:10:32;5.63;;;1.60;;
62202;SDS011;48199;49.138;7.414;2022-07-05T07:12:58;9.48;;;1.65;;
62202;SDS011;48199;49.138;7.414;2022-07-05T07:15:24;5.90;;;1.45;;
62202;SDS011;48199;49.138;7.414;2022-07-05T07:17:50;6.20;;;1.60;;
62202;SDS011;48199;49.138;7.414;2022-07-05T07:20:15;4.32;;;1.42;;
62202;SDS011;48199;49.138;7.414;2022-07-05T07:22:41;6.93;;;1.60;;
62202;SDS011;48199;49.138;7.414;2022-07-05T07:25:06;8.50;;;1.65;;
62202;SDS011;48199;49.138;7.414;2022-07-05T07:27:40;5.03;;;1.35;;
62202;SDS011;48199;49.138;7.414;2022-07-05T07:30:13;3.85;;;1.20;;
62202;SDS011;48199;49.138;7.414;2022-07-05T07:32:42;15.85;;;1.85;;
62202;SDS011;48199;49.138;7.414;2022-07-05T07:35:09;4.20;;;1.30;;
62202;SDS011;48199;49.138;7.414;2022-07-05T07:37:34;6.50;;;1.27;;
62202;SDS011;48199;49.138;7.414;2022-07-05T07:40:01;7.97;;;1.70;;
62202;SDS011;48199;49.138;7.414;2022-07-05T07:42:28;4.97;;;1.60;;
62202;SDS011;48199;49.138;7.414;2022-07-05T07:44:54;2.65;;;1.30;;
62202;SDS011;48199;49.138;7.414;2022-07-05T07:47:19;5.07;;;1.50;;
62202;SDS011;48199;49.138;7.414;2022-07-05T07:49:44;9.30;;;1.52;;
62202;SDS011;48199;49.138;7.414;2022-07-05T07:52:10;7.45;;;1.80;;
62202;SDS011;48199;49.138;7.414;2022-07-05T07:54:36;8.55;;;1.52;;
62202;SDS011;48199;49.138;7.414;2022-07-05T07:57:01;4.35;;;1.35;;
62202;SDS011;48199;49.138;7.414;2022-07-05T07:59:29;5.70;;;1.42;;
62202;SDS011;48199;49.138;7.414;2022-07-05T08:01:55;5.55;;;1.27;;
62202;SDS011;48199;49.138;7.414;2022-07-05T08:04:20;2.78;;;1.20;;
62202;SDS011;48199;49.138;7.414;2022-07-05T08:06:45;5.18;;;1.75;;
62202;SDS011;48199;49.138;7.414;2022-07-05T08:09:11;5.47;;;1.20;;
62202;SDS011;48199;49.138;7.414;2022-07-05T08:11:37;5.22;;;1.30;;
62202;SDS011;48199;49.138;7.414;2022-07-05T08:14:03;2.50;;;1.33;;
62202;SDS011;48199;49.138;7.414;2022-07-05T08:16:28;6.03;;;1.10;;
62202;SDS011;48199;49.138;7.414;2022-07-05T08:18:53;9.07;;;1.45;;
62202;SDS011;48199;49.138;7.414;2022-07-05T08:21:37;2.63;;;1.17;;
62202;SDS011;48199;49.138;7.414;2022-07-05T08:24:06;3.03;;;1.15;;
62202;SDS011;48199;49.138;7.414;2022-07-05T08:26:34;3.33;;;1.20;;
62202;SDS011;48199;49.138;7.414;2022-07-05T08:29:00;7.72;;;1.50;;
62202;SDS011;48199;49.138;7.414;2022-07-05T08:31:27;6.78;;;1.48;;
62202;SDS011;48199;49.138;7.414;2022-07-05T08:33:54;2.65;;;1.00;;
62202;SDS011;48199;49.138;7.414;2022-07-05T08:36:20;2.15;;;1.13;;
62202;SDS011;48199;49.138;7.414;2022-07-05T08:38:46;3.30;;;1.17;;
62202;SDS011;48199;49.138;7.414;2022-07-05T08:41:11;1.88;;;1.05;;
62202;SDS011;48199;49.138;7.414;2022-07-05T08:43:39;2.15;;;1.08;;
62202;SDS011;48199;49.138;7.414;2022-07-05T08:46:07;7.88;;;1.20;;
62202;SDS011;48199;49.138;7.414;2022-07-05T08:48:38;3.08;;;1.10;;
62202;SDS011;48199;49.138;7.414;2022-07-05T08:51:12;3.72;;;1.20;;
62202;SDS011;48199;49.138;7.414;2022-07-05T08:53:49;3.30;;;1.08;;
62202;SDS011;48199;49.138;7.414;2022-07-05T08:56:17;3.13;;;1.00;;
62202;SDS011;48199;49.138;7.414;2022-07-05T08:58:44;6.22;;;1.15;;
62202;SDS011;48199;49.138;7.414;2022-07-05T09:01:10;3.53;;;1.20;;
62202;SDS011;48199;49.138;7.414;2022-07-05T09:03:46;3.47;;;1.08;;
62202;SDS011;48199;49.138;7.414;2022-07-05T09:06:16;2.08;;;1.02;;
62202;SDS011;48199;49.138;7.414;2022-07-05T09:08:43;2.58;;;0.95;;
62202;SDS011;48199;49.138;7.414;2022-07-05T09:11:10;2.90;;;1.15;;
62202;SDS011;48199;49.138;7.414;2022-07-05T09:13:39;5.35;;;1.30;;
62202;SDS011;48199;49.138;7.414;2022-07-05T09:16:06;3.85;;;1.30;;
62202;SDS011;48199;49.138;7.414;2022-07-05T09:23:52;3.13;;;1.00;;
62202;SDS011;48199;49.138;7.414;2022-07-05T09:26:41;4.32;;;1.30;;
62202;SDS011;48199;49.138;7.414;2022-07-05T09:29:18;3.38;;;1.08;;
62202;SDS011;48199;49.138;7.414;2022-07-05T09:31:48;2.78;;;0.95;;
62202;SDS011;48199;49.138;7.414;2022-07-05T09:34:15;4.88;;;1.10;;
62202;SDS011;48199;49.138;7.414;2022-07-05T09:36:55;2.95;;;1.30;;
62202;SDS011;48199;49.138;7.414;2022-07-05T09:39:41;3.45;;;1.00;;
62202;SDS011;48199;49.138;7.414;2022-07-05T09:42:39;3.13;;;1.10;;
62202;SDS011;48199;49.138;7.414;2022-07-05T09:47:31;5.38;;;1.08;;
62202;SDS011;48199;49.138;7.414;2022-07-05T09:49:57;1.52;;;0.98;;
62202;SDS011;48199;49.138;7.414;2022-07-05T09:52:33;1.95;;;1.13;;
62202;SDS011;48199;49.138;7.414;2022-07-05T09:55:06;2.55;;;1.00;;
62202;SDS011;48199;49.138;7.414;2022-07-05T09:57:34;3.90;;;1.30;;
62202;SDS011;48199;49.138;7.414;2022-07-05T10:05:11;5.93;;;1.40;;
62202;SDS011;48199;49.138;7.414;2022-07-05T10:07:40;3.08;;;1.40;;
62202;SDS011;48199;49.138;7.414;2022-07-05T10:10:09;2.22;;;1.17;;
62202;SDS011;48199;49.138;7.414;2022-07-05T10:12:36;5.28;;;1.35;;
62202;SDS011;48199;49.138;7.414;2022-07-05T10:15:03;2.63;;;1.00;;
62202;SDS011;48199;49.138;7.414;2022-07-05T10:17:30;4.60;;;1.23;;
62202;SDS011;48199;49.138;7.414;2022-07-05T10:20:01;6.10;;;1.50;;
62202;SDS011;48199;49.138;7.414;2022-07-05T10:22:30;4.03;;;0.80;;
62202;SDS011;48199;49.138;7.414;2022-07-05T10:24:55;5.03;;;1.10;;
62202;SDS011;48199;49.138;7.414;2022-07-05T10:27:25;4.18;;;0.93;;
62202;SDS011;48199;49.138;7.414;2022-07-05T10:29:53;6.75;;;1.10;;
62202;SDS011;48199;49.138;7.414;2022-07-05T10:32:21;3.35;;;1.00;;
62202;SDS011;48199;49.138;7.414;2022-07-05T10:34:50;3.85;;;1.08;;
62202;SDS011;48199;49.138;7.414;2022-07-05T10:37:16;5.18;;;1.10;;
62202;SDS011;48199;49.138;7.414;2022-07-05T10:39:42;1.90;;;1.13;;
62202;SDS011;48199;49.138;7.414;2022-07-05T10:42:08;7.18;;;1.40;;
62202;SDS011;48199;49.138;7.414;2022-07-05T10:44:34;6.80;;;1.30;;
62202;SDS011;48199;49.138;7.414;2022-07-05T10:47:09;4.00;;;1.15;;
62202;SDS011;48199;49.138;7.414;2022-07-05T10:49:36;3.10;;;1.00;;
62202;SDS011;48199;49.138;7.414;2022-07-05T10:52:03;7.28;;;1.60;;
62202;SDS011;48199;49.138;7.414;2022-07-05T10:54:29;6.20;;;1.10;;
62202;SDS011;48199;49.138;7.414;2022-07-05T11:02:37;5.22;;;1.40;;
62202;SDS011;48199;49.138;7.414;2022-07-05T11:05:03;4.30;;;1.60;;
62202;SDS011;48199;49.138;7.414;2022-07-05T11:10:22;5.35;;;1.52;;
62202;SDS011;48199;49.138;7.414;2022-07-05T11:12:48;3.38;;;1.25;;
62202;SDS011;48199;49.138;7.414;2022-07-05T11:15:13;3.50;;;1.27;;
62202;SDS011;48199;49.138;7.414;2022-07-05T11:17:39;4.72;;;1.33;;
62202;SDS011;48199;49.138;7.414;2022-07-05T11:20:06;3.40;;;1.33;;
62202;SDS011;48199;49.138;7.414;2022-07-05T11:22:38;3.63;;;1.30;;
62202;SDS011;48199;49.138;7.414;2022-07-05T11:25:07;3.45;;;1.48;;
62202;SDS011;48199;49.138;7.414;2022-07-05T11:27:34;3.90;;;1.50;;
62202;SDS011;48199;49.138;7.414;2022-07-05T11:30:00;5.10;;;1.55;;
62202;SDS011;48199;49.138;7.414;2022-07-05T11:34:56;3.50;;;1.70;;
62202;SDS011;48199;49.138;7.414;2022-07-05T11:42:47;7.45;;;1.70;;
62202;SDS011;48199;49.138;7.414;2022-07-05T11:45:13;3.63;;;1.40;;
62202;SDS011;48199;49.138;7.414;2022-07-05T11:47:39;3.95;;;1.67;;
62202;SDS011;48199;49.138;7.414;2022-07-05T11:50:05;6.30;;;1.42;;
62202;SDS011;48199;49.138;7.414;2022-07-05T11:52:32;5.35;;;1.50;;
62202;SDS011;48199;49.138;7.414;2022-07-05T11:55:02;2.90;;;1.30;;
62202;SDS011;48199;49.138;7.414;2022-07-05T11:57:29;4.30;;;1.57;;
62202;SDS011;48199;49.138;7.414;2022-07-05T11:59:55;3.88;;;1.23;;
62202;SDS011;48199;49.138;7.414;2022-07-05T12:02:20;3.95;;;1.70;;
62202;SDS011;48199;49.138;7.414;2022-07-05T12:04:52;6.72;;;1.75;;
62202;SDS011;48199;49.138;7.414;2022-07-05T12:07:29;4.78;;;1.63;;
62202;SDS011;48199;49.138;7.414;2022-07-05T12:09:59;8.65;;;1.58;;
62202;SDS011;48199;49.138;7.414;2022-07-05T12:12:44;3.83;;;1.35;;
62202;SDS011;48199;49.138;7.414;2022-07-05T12:15:19;5.32;;;1.63;;
62202;SDS011;48199;49.138;7.414;2022-07-05T12:17:46;5.57;;;1.50;;
62202;SDS011;48199;49.138;7.414;2022-07-05T12:20:14;5.13;;;1.60;;
62202;SDS011;48199;49.138;7.414;2022-07-05T12:25:07;5.60;;;1.80;;
62202;SDS011;48199;49.138;7.414;2022-07-05T12:27:37;4.20;;;1.50;;
62202;SDS011;48199;49.138;7.414;2022-07-05T12:30:04;4.53;;;1.60;;
62202;SDS011;48199;49.138;7.414;2022-07-05T12:32:31;2.80;;;1.40;;
62202;SDS011;48199;49.138;7.414;2022-07-05T12:34:57;2.67;;;1.40;;
62202;SDS011;48199;49.138;7.414;2022-07-05T12:37:23;6.60;;;1.40;;
62202;SDS011;48199;49.138;7.414;2022-07-05T12:40:02;4.07;;;1.20;;
62202;SDS011;48199;49.138;7.414;2022-07-05T12:42:33;4.68;;;1.20;;
62202;SDS011;48199;49.138;7.414;2022-07-05T12:45:20;5.53;;;1.20;;
62202;SDS011;48199;49.138;7.414;2022-07-05T12:47:48;3.40;;;1.20;;
62202;SDS011;48199;49.138;7.414;2022-07-05T12:50:15;6.93;;;1.17;;
62202;SDS011;48199;49.138;7.414;2022-07-05T12:53:00;2.97;;;1.20;;
62202;SDS011;48199;49.138;7.414;2022-07-05T12:55:57;4.28;;;1.10;;
62202;SDS011;48199;49.138;7.414;2022-07-05T12:58:46;1.85;;;1.20;;
62202;SDS011;48199;49.138;7.414;2022-07-05T13:01:22;2.30;;;0.93;;
62202;SDS011;48199;49.138;7.414;2022-07-05T13:14:44;2.28;;;0.93;;
62202;SDS011;48199;49.138;7.414;2022-07-05T13:17:14;4.32;;;1.20;;
62202;SDS011;48199;49.138;7.414;2022-07-05T13:19:41;2.53;;;1.20;;
62202;SDS011;48199;49.138;7.414;2022-07-05T13:22:08;5.55;;;1.15;;
62202;SDS011;48199;49.138;7.414;2022-07-05T13:24:34;1.75;;;1.13;;
62202;SDS011;48199;49.138;7.414;2022-07-05T13:27:00;2.58;;;1.08;;
62202;SDS011;48199;49.138;7.414;2022-07-05T13:29:26;3.67;;;1.10;;
62202;SDS011;48199;49.138;7.414;2022-07-05T13:31:52;2.28;;;1.10;;
62202;SDS011;48199;49.138;7.414;2022-07-05T13:34:18;3.92;;;0.80;;
62202;SDS011;48199;49.138;7.414;2022-07-05T13:36:43;1.27;;;1.08;;
62202;SDS011;48199;49.138;7.414;2022-07-05T13:39:10;3.42;;;1.10;;
62202;SDS011;48199;49.138;7.414;2022-07-05T13:41:36;3.05;;;1.02;;
62202;SDS011;48199;49.138;7.414;2022-07-05T13:44:01;2.55;;;1.08;;
62202;SDS011;48199;49.138;7.414;2022-07-05T13:46:27;4.47;;;1.15;;
62202;SDS011;48199;49.138;7.414;2022-07-05T13:48:52;2.38;;;1.10;;
62202;SDS011;48199;49.138;7.414;2022-07-05T13:51:18;3.83;;;1.00;;
62202;SDS011;48199;49.138;7.414;2022-07-05T13:53:43;3.72;;;0.90;;
62202;SDS011;48199;49.138;7.414;2022-07-05T13:56:08;2.17;;;0.93;;
62202;SDS011;48199;49.138;7.414;2022-07-05T13:58:34;4.63;;;0.90;;
62202;SDS011;48199;49.138;7.414;2022-07-05T14:01:00;4.07;;;0.90;;
62202;SDS011;48199;49.138;7.414;2022-07-05T14:03:26;1.85;;;0.88;;
62202;SDS011;48199;49.138;7.414;2022-07-05T14:05:52;1.10;;;0.70;;
62202;SDS011;48199;49.138;7.414;2022-07-05T14:08:17;2.35;;;1.30;;
62202;SDS011;48199;49.138;7.414;2022-07-05T14:10:52;1.83;;;0.95;;
62202;SDS011;48199;49.138;7.414;2022-07-05T14:13:22;1.67;;;1.00;;
62202;SDS011;48199;49.138;7.414;2022-07-05T14:15:49;3.10;;;1.10;;
62202;SDS011;48199;49.138;7.414;2022-07-05T14:18:16;5.60;;;0.90;;
62202;SDS011;48199;49.138;7.414;2022-07-05T14:20:43;3.00;;;1.00;;
62202;SDS011;48199;49.138;7.414;2022-07-05T14:23:09;2.97;;;1.20;;
62202;SDS011;48199;49.138;7.414;2022-07-05T14:25:36;7.40;;;1.20;;
62202;SDS011;48199;49.138;7.414;2022-07-05T14:28:01;2.20;;;0.80;;
62202;SDS011;48199;49.138;7.414;2022-07-05T14:30:32;2.17;;;0.90;;
62202;SDS011;48199;49.138;7.414;2022-07-05T14:33:01;2.85;;;1.08;;
62202;SDS011;48199;49.138;7.414;2022-07-05T14:35:27;2.05;;;0.90;;
62202;SDS011;48199;49.138;7.414;2022-07-05T14:37:53;5.43;;;1.10;;
62202;SDS011;48199;49.138;7.414;2022-07-05T14:40:18;4.90;;;0.95;;
62202;SDS011;48199;49.138;7.414;2022-07-05T14:42:43;2.10;;;1.10;;
62202;SDS011;48199;49.138;7.414;2022-07-05T14:45:09;1.70;;;0.90;;
62202;SDS011;48199;49.138;7.414;2022-07-05T14:47:35;2.20;;;0.88;;
62202;SDS011;48199;49.138;7.414;2022-07-05T14:50:00;1.65;;;0.85;;
62202;SDS011;48199;49.138;7.414;2022-07-05T14:52:25;2.72;;;0.90;;
62202;SDS011;48199;49.138;7.414;2022-07-05T14:54:53;3.78;;;1.00;;
62202;SDS011;48199;49.138;7.414;2022-07-05T14:57:18;4.20;;;1.20;;
62202;SDS011;48199;49.138;7.414;2022-07-05T14:59:43;3.42;;;1.10;;
62202;SDS011;48199;49.138;7.414;2022-07-05T15:02:09;2.20;;;1.20;;
62202;SDS011;48199;49.138;7.414;2022-07-05T15:04:34;2.80;;;1.00;;
62202;SDS011;48199;49.138;7.414;2022-07-05T15:07:00;2.33;;;1.00;;
62202;SDS011;48199;49.138;7.414;2022-07-05T15:09:25;2.40;;;1.10;;
62202;SDS011;48199;49.138;7.414;2022-07-05T15:11:50;2.80;;;1.10;;
62202;SDS011;48199;49.138;7.414;2022-07-05T15:14:16;5.55;;;1.20;;
62202;SDS011;48199;49.138;7.414;2022-07-05T15:16:42;2.70;;;1.00;;
62202;SDS011;48199;49.138;7.414;2022-07-05T15:19:07;2.88;;;1.08;;
62202;SDS011;48199;49.138;7.414;2022-07-05T15:21:33;3.83;;;1.05;;
62202;SDS011;48199;49.138;7.414;2022-07-05T15:23:58;2.60;;;0.90;;
62202;SDS011;48199;49.138;7.414;2022-07-05T15:26:24;3.30;;;1.10;;
62202;SDS011;48199;49.138;7.414;2022-07-05T15:28:52;1.45;;;0.98;;
62202;SDS011;48199;49.138;7.414;2022-07-05T15:31:29;2.05;;;1.10;;
62202;SDS011;48199;49.138;7.414;2022-07-05T15:33:55;3.95;;;1.10;;
62202;SDS011;48199;49.138;7.414;2022-07-05T15:36:21;4.85;;;1.10;;